• Join FlightAware (Why Join?)
  • Login
  • US Flag 
09:08AM EDT


 

Airport Tracker/Info


-or-


 

Live Flight TrackerFlight Track Log ✈ N621RJ ✈ 22-Mar-2014 ✈ KADS - KGCM

Flight Track Log - Related Links

Times and Time Zones

All times are in EDT time to prevent confusion due to time zone crossing. See the N621RJ flight status page for this flight to view local times or setup timezone preferences in your user account.

Time Position Orientation Groundspeed Altitude Reporting Facility
EDT Latitude Longitude Course Direction KTS MPH feet Rate Location/Type
04:50PM 32.9833 -96.8500 360° North 99 114 1,700  Level Dallas / Fort Worth TRACON
04:51PM 33.0000 -96.8500 360° North 150 173 2,000 660 Climbing Dallas / Fort Worth TRACON
04:52PM 33.0500 -96.8833 331° Northwest 136 157 2,900 900 Climbing Dallas / Fort Worth TRACON
04:53PM 33.0833 -96.8833 360° North 134 154 3,800 960 Climbing Dallas / Fort Worth TRACON
04:54PM 33.1167 -96.8833 360° North 123 142 4,900 660 Climbing Dallas / Fort Worth TRACON
04:55PM 33.1347 -96.8972 327° Northwest 128 147 5,000 120 Climbing Fort Worth Center
04:56PM 33.1800 -96.9050 352° North 154 177 5,100 480 Climbing Fort Worth Center
04:57PM 33.2258 -96.9125 352° North 156 180 6,000 720 Climbing Fort Worth Center
04:58PM 33.2656 -96.9169 355° North 149 171 6,700 480 Climbing Fort Worth Center
04:59PM 33.3103 -96.9203 356° North 154 177 7,000 120 Climbing Fort Worth Center
05:00PM 33.3656 -96.9297 352° North 182 209 7,000  Level Fort Worth Center
05:01PM 33.4189 -96.9364 354° North 188 216 7,000  Level Fort Worth Center
05:02PM 33.4728 -96.9439 353° North 191 220 7,000  Level Fort Worth Center
05:03PM 33.5303 -96.9525 353° North 192 221 7,000  Level Fort Worth Center
05:04PM 33.5842 -96.9608 353° North 192 221 7,000  Level Fort Worth Center
05:05PM 33.6394 -96.9686 353° North 190 219 7,000 -60 Level Fort Worth Center
05:06PM 33.6850 -96.9522 17° North 188 216 6,900 -60 Descending Fort Worth Center
05:07PM 33.7383 -96.9192 27° Northeast 200 230 6,900  Level Fort Worth Center
05:09PM 33.8356 -96.8706 25° Northeast 198 228 7,000  Climbing Fort Worth Center
05:10PM 33.8958 -96.8389 24° Northeast 197 227 7,000 -60 Level Fort Worth Center
05:11PM 33.9461 -96.8125 24° Northeast 198 228 6,900 -60 Descending Fort Worth Center
05:12PM 33.9956 -96.7817 27° Northeast 198 228 6,900  Level Fort Worth Center
05:13PM 34.0506 -96.7525 24° Northeast 198 228 6,900 60 Level Fort Worth Center
05:14PM 34.0997 -96.7233 26° Northeast 198 228 7,100  Climbing Fort Worth Center
05:15PM 34.1486 -96.6906 29° Northeast 198 228 7,000  Descending Fort Worth Center
05:16PM 34.2017 -96.6733 15° North 198 228 7,100  Climbing Fort Worth Center
05:17PM 34.2525 -96.6622 10° North 196 226 7,100 -60 Level Fort Worth Center
05:18PM 34.3097 -96.6228 30° Northeast 196 226 7,000 -60 Descending Fort Worth Center
05:19PM 34.3467 -96.5967 30° Northeast 196 226 7,000  Level Fort Worth Center
05:20PM 34.3997 -96.5567 32° Northeast 193 222 7,000  Level Fort Worth Center
05:22PM 34.4486 -96.5339 21° North 192 221 7,100  Climbing Fort Worth Center
05:23PM 34.4972 -96.5089 23° Northeast 192 221 7,000 -60 Descending Fort Worth Center
05:24PM 34.5447 -96.4800 27° Northeast 192 221 7,000  Level Fort Worth Center
05:25PM 34.6033 -96.4486 24° Northeast 192 221 7,000  Level Fort Worth Center
05:26PM 34.6539 -96.4367 11° North 195 224 7,000  Level Fort Worth Center
05:27PM 34.7042 -96.4342 North 186 214 7,000  Level Fort Worth Center
05:28PM 34.7561 -96.4311 North 186 214 7,000  Level Fort Worth Center
05:29PM 34.8097 -96.4281 North 187 215 7,000  Level Fort Worth Center
05:30PM 34.8611 -96.4258 North 187 215 7,000  Level Fort Worth Center
05:31PM 34.9217 -96.4128 10° North 185 213 7,000  Level Fort Worth Center
05:32PM 34.9736 -96.4028 North 185 213 7,000  Level Fort Worth Center
05:33PM 35.0247 -96.3936 North 185 213 7,000  Level Fort Worth Center
05:34PM 35.0744 -96.3856 North 185 213 7,000  Level Fort Worth Center
05:35PM 35.1242 -96.3742 11° North 183 211 7,000 -60 Level Fort Worth Center
05:36PM 35.1842 -96.3622 North 183 211 6,900 -60 Descending Fort Worth Center
05:37PM 35.2347 -96.3519 North 183 211 6,900 -300 Level Fort Worth Center
05:38PM 35.2850 -96.3433 North 183 211 6,300 -540 Descending Fort Worth Center
05:39PM 35.3336 -96.3389 North 182 209 5,900 -240 Descending Fort Worth Center
05:40PM 35.3747 -96.3275 13° North 162 186 5,900  Level Fort Worth Center
05:41PM 35.3969 -96.3200 15° North 152 175 6,000  Climbing Kansas City Center
05:42PM 35.4442 -96.3003 19° North 150 173 6,000  Level Kansas City Center
05:43PM 35.4825 -96.2831 20° North 150 173 6,000  Level Kansas City Center
05:44PM 35.5197 -96.2675 19° North 148 170 6,000  Level Kansas City Center
05:45PM 35.5572 -96.2511 20° North 147 169 6,000  Level Kansas City Center
05:46PM 35.5956 -96.2333 21° North 147 169 6,000  Level Kansas City Center
05:47PM 35.6356 -96.2136 22° Northeast 148 170 6,000  Level Kansas City Center
05:48PM 35.6853 -96.1931 19° North 154 177 6,000  Level Kansas City Center
05:49PM 35.7250 -96.1733 22° Northeast 154 177 6,000  Level Kansas City Center
05:50PM 35.7486 -96.1631 19° North 157 181 6,000  Level Kansas City Center
05:50PM 35.7661 -96.1539 23° Northeast 154 177 6,000 -180 Level Kansas City Center
05:50PM 35.7831 -96.1486 14° North 156 180 5,900 -420 Descending Kansas City Center
05:51PM 35.8069 -96.1361 23° Northeast 156 180 5,600 -540 Descending Kansas City Center
05:51PM 35.8256 -96.1303 14° North 159 183 5,400 -600 Descending Kansas City Center
05:52PM 35.8586 -96.1133 23° Northeast 162 186 5,000 -540 Descending Kansas City Center
05:52PM 35.8678 -96.1069 29° Northeast 174 200 4,900 -540 Descending Kansas City Center
05:53PM 35.8903 -96.0725 51° Northeast 164 189 4,500 -600 Descending Kansas City Center
05:53PM 35.8978 -96.0644 41° Northeast 167 192 4,300 -600 Descending Kansas City Center
05:54PM 35.9194 -96.0300 52° Northeast 165 190 3,900 -420 Descending Kansas City Center
05:54PM 35.9256 -96.0222 46° Northeast 158 182 3,900 -180 Level Kansas City Center
05:56PM 35.9533 -95.9800 51° Northeast 135 155 3,700 -240 Descending Kansas City Center
05:56PM 35.9700 -95.9569 48° Northeast 140 161 3,500 -240 Descending Kansas City Center
05:57PM 35.9817 -95.9403 49° Northeast 138 159 3,500  Level Kansas City Center
05:57PM 35.9950 -95.9211 49° Northeast 140 161 3,500  Level Kansas City Center
05:58PM 36.0042 -95.9089 47° Northeast 137 158 3,500 -120 Level Kansas City Center
05:58PM 36.0197 -95.8853 51° Northeast 140 161 3,400  Descending Kansas City Center
05:59PM 36.0281 -95.8722 52° Northeast 134 154 3,500 60 Climbing Kansas City Center
05:59PM 36.0481 -95.8431 50° Northeast 138 159 3,500  Level Kansas City Center
06:00PM 36.0561 -95.8322 47° Northeast 133 153 3,500  Level Kansas City Center
06:00PM 36.0722 -95.8072 51° Northeast 137 158 3,500  Level Kansas City Center
06:01PM 36.0728 -95.8044 76° East 132 152 3,500  Level Kansas City Center
06:01PM 36.0947 -95.7744 48° Northeast 132 152 3,500  Level Kansas City Center
06:02PM 36.0953 -95.7731 64° Northeast 126 145 3,500 -300 Level Kansas City Center
06:03PM 36.1183 -95.7389 50° Northeast 130 150 3,200 -360 Descending Kansas City Center
06:03PM 36.1231 -95.7306 55° Northeast 141 162 3,100 -540 Descending Kansas City Center
06:04PM 36.1447 -95.7003 48° Northeast 138 159 2,700 -660 Descending Kansas City Center
06:04PM 36.1508 -95.6906 52° Northeast 153 176 2,500 -240 Descending Kansas City Center
06:05PM 36.1719 -95.6606 49° Northeast 146 168 2,500  Level Kansas City Center